sensor_id;sensor_type;location;lat;lon;timestamp;pressure;altitude;pressure_sealevel;temperature;humidity
67052;BME280;53957;47.222;18.670;2023-05-22T04:28:28;100089.50;;;15.17;100.00
67052;BME280;53957;47.222;18.670;2023-05-22T04:31:32;100095.41;;;16.02;100.00
67052;BME280;53957;47.222;18.670;2023-05-22T04:34:36;100100.50;;;16.63;100.00
67052;BME280;53957;47.222;18.670;2023-05-22T04:37:39;100093.22;;;16.85;100.00
67052;BME280;53957;47.222;18.670;2023-05-22T04:40:47;100086.50;;;17.33;100.00
67052;BME280;53957;47.222;18.670;2023-05-22T04:43:50;100088.31;;;17.08;100.00
67052;BME280;53957;47.222;18.670;2023-05-22T04:46:54;100091.94;;;17.46;100.00
67052;BME280;53957;47.222;18.670;2023-05-22T04:49:59;100094.97;;;17.90;100.00
67052;BME280;53957;47.222;18.670;2023-05-22T04:53:02;100097.00;;;17.81;100.00
67052;BME280;53957;47.222;18.670;2023-05-22T04:56:08;100104.44;;;17.96;100.00
67052;BME280;53957;47.222;18.670;2023-05-22T04:59:11;100104.00;;;17.06;100.00
67052;BME280;53957;47.222;18.670;2023-05-22T05:02:18;100101.19;;;17.02;100.00
67052;BME280;53957;47.222;18.670;2023-05-22T05:05:21;100100.50;;;17.48;100.00
67052;BME280;53957;47.222;18.670;2023-05-22T05:08:25;100098.19;;;18.42;98.25
67052;BME280;53957;47.222;18.670;2023-05-22T05:11:28;100104.34;;;17.59;100.00
67052;BME280;53957;47.222;18.670;2023-05-22T05:14:31;100113.38;;;18.22;100.00
67052;BME280;53957;47.222;18.670;2023-05-22T05:17:34;100118.81;;;17.88;100.00
67052;BME280;53957;47.222;18.670;2023-05-22T05:20:37;100111.78;;;18.58;100.00
67052;BME280;53957;47.222;18.670;2023-05-22T05:23:40;100116.25;;;19.03;94.64
67052;BME280;53957;47.222;18.670;2023-05-22T05:26:43;100116.69;;;20.06;87.81
67052;BME280;53957;47.222;18.670;2023-05-22T05:29:46;100113.50;;;18.38;90.42
67052;BME280;53957;47.222;18.670;2023-05-22T05:32:51;100112.56;;;18.09;91.53
67052;BME280;53957;47.222;18.670;2023-05-22T05:35:54;100113.56;;;18.78;91.80
67052;BME280;53957;47.222;18.670;2023-05-22T05:38:57;100117.09;;;18.29;89.94
67052;BME280;53957;47.222;18.670;2023-05-22T05:42:00;100119.31;;;18.77;89.91
67052;BME280;53957;47.222;18.670;2023-05-22T05:45:04;100118.09;;;19.27;90.74
67052;BME280;53957;47.222;18.670;2023-05-22T05:48:07;100118.72;;;19.81;83.13
67052;BME280;53957;47.222;18.670;2023-05-22T05:51:11;100131.97;;;19.42;86.81
67052;BME280;53957;47.222;18.670;2023-05-22T05:54:16;100127.66;;;20.46;82.06
67052;BME280;53957;47.222;18.670;2023-05-22T05:57:19;100128.41;;;19.82;83.49
67052;BME280;53957;47.222;18.670;2023-05-22T06:00:23;100136.22;;;19.55;84.51
67052;BME280;53957;47.222;18.670;2023-05-22T06:03:29;100128.84;;;20.48;82.12
67052;BME280;53957;47.222;18.670;2023-05-22T06:06:33;100129.31;;;20.50;79.66
67052;BME280;53957;47.222;18.670;2023-05-22T06:09:42;100125.34;;;19.39;86.20
67052;BME280;53957;47.222;18.670;2023-05-22T06:12:44;100130.31;;;20.62;82.45
67052;BME280;53957;47.222;18.670;2023-05-22T06:15:49;100131.72;;;21.27;75.06
67052;BME280;53957;47.222;18.670;2023-05-22T06:18:52;100120.16;;;21.30;71.96
67052;BME280;53957;47.222;18.670;2023-05-22T06:21:55;100127.34;;;22.04;73.51
67052;BME280;53957;47.222;18.670;2023-05-22T06:24:59;100129.53;;;21.32;71.78
67052;BME280;53957;47.222;18.670;2023-05-22T06:28:02;100124.69;;;22.58;64.19
67052;BME280;53957;47.222;18.670;2023-05-22T06:31:05;100125.63;;;21.53;71.86
67052;BME280;53957;47.222;18.670;2023-05-22T06:34:08;100125.94;;;21.08;70.10
67052;BME280;53957;47.222;18.670;2023-05-22T06:37:11;100126.16;;;22.51;62.66
67052;BME280;53957;47.222;18.670;2023-05-22T06:40:15;100124.09;;;21.32;66.23
67052;BME280;53957;47.222;18.670;2023-05-22T06:43:21;100117.56;;;21.99;58.11
67052;BME280;53957;47.222;18.670;2023-05-22T06:46:24;100126.16;;;21.59;60.03
67052;BME280;53957;47.222;18.670;2023-05-22T06:49:27;100123.28;;;21.71;62.30
67052;BME280;53957;47.222;18.670;2023-05-22T06:52:30;100125.53;;;22.12;56.11
67052;BME280;53957;47.222;18.670;2023-05-22T06:55:36;100132.59;;;22.16;52.24
67052;BME280;53957;47.222;18.670;2023-05-22T06:58:40;100125.81;;;21.83;55.45
67052;BME280;53957;47.222;18.670;2023-05-22T07:01:43;100131.28;;;21.24;59.33
67052;BME280;53957;47.222;18.670;2023-05-22T07:04:47;100134.44;;;21.07;58.27
67052;BME280;53957;47.222;18.670;2023-05-22T07:07:50;100127.34;;;23.11;52.72
67052;BME280;53957;47.222;18.670;2023-05-22T07:10:54;100127.34;;;22.31;56.61
67052;BME280;53957;47.222;18.670;2023-05-22T07:13:57;100124.38;;;21.90;58.47
67052;BME280;53957;47.222;18.670;2023-05-22T07:17:00;100119.72;;;22.63;54.48
67052;BME280;53957;47.222;18.670;2023-05-22T07:20:05;100123.06;;;23.44;51.76
67052;BME280;53957;47.222;18.670;2023-05-22T07:23:10;100125.44;;;22.85;52.49
67052;BME280;53957;47.222;18.670;2023-05-22T07:26:12;100125.09;;;21.86;55.69
67052;BME280;53957;47.222;18.670;2023-05-22T07:29:16;100116.88;;;23.47;50.60
67052;BME280;53957;47.222;18.670;2023-05-22T07:32:20;100114.03;;;24.19;43.68
67052;BME280;53957;47.222;18.670;2023-05-22T07:35:24;100126.09;;;24.18;44.04
67052;BME280;53957;47.222;18.670;2023-05-22T07:38:27;100121.22;;;23.52;52.25
67052;BME280;53957;47.222;18.670;2023-05-22T07:41:31;100123.69;;;23.68;46.74
67052;BME280;53957;47.222;18.670;2023-05-22T07:44:34;100122.44;;;22.63;48.91
67052;BME280;53957;47.222;18.670;2023-05-22T07:47:37;100129.06;;;22.96;47.16
67052;BME280;53957;47.222;18.670;2023-05-22T07:50:41;100132.13;;;23.59;51.13
67052;BME280;53957;47.222;18.670;2023-05-22T07:53:48;100125.13;;;23.21;48.10
67052;BME280;53957;47.222;18.670;2023-05-22T07:56:51;100135.97;;;22.87;46.54
67052;BME280;53957;47.222;18.670;2023-05-22T07:59:55;100127.25;;;23.38;45.68
67052;BME280;53957;47.222;18.670;2023-05-22T08:02:58;100119.91;;;21.78;49.78
67052;BME280;53957;47.222;18.670;2023-05-22T08:06:02;100120.00;;;23.15;53.81
67052;BME280;53957;47.222;18.670;2023-05-22T08:09:05;100122.25;;;23.10;46.02
67052;BME280;53957;47.222;18.670;2023-05-22T08:12:08;100129.72;;;22.86;48.74
67052;BME280;53957;47.222;18.670;2023-05-22T08:15:12;100129.31;;;23.14;47.99
67052;BME280;53957;47.222;18.670;2023-05-22T08:18:18;100129.53;;;22.72;48.58
67052;BME280;53957;47.222;18.670;2023-05-22T08:21:22;100134.41;;;22.59;48.37
67052;BME280;53957;47.222;18.670;2023-05-22T08:24:25;100132.41;;;22.56;53.29
67052;BME280;53957;47.222;18.670;2023-05-22T08:27:31;100128.94;;;22.09;53.00
67052;BME280;53957;47.222;18.670;2023-05-22T08:30:34;100135.50;;;21.61;55.76
67052;BME280;53957;47.222;18.670;2023-05-22T08:33:38;100121.50;;;21.39;52.47
67052;BME280;53957;47.222;18.670;2023-05-22T08:36:41;100121.78;;;20.75;60.21
67052;BME280;53957;47.222;18.670;2023-05-22T08:39:44;100119.66;;;20.69;61.29
67052;BME280;53957;47.222;18.670;2023-05-22T08:42:47;100106.78;;;21.40;57.12
67052;BME280;53957;47.222;18.670;2023-05-22T08:46:04;100107.63;;;20.50;60.22
67052;BME280;53957;47.222;18.670;2023-05-22T08:49:08;100102.25;;;21.45;58.27
67052;BME280;53957;47.222;18.670;2023-05-22T08:52:34;100114.94;;;21.21;57.78
67052;BME280;53957;47.222;18.670;2023-05-22T08:55:39;100108.75;;;21.60;58.67
67052;BME280;53957;47.222;18.670;2023-05-22T08:58:43;100109.94;;;21.43;58.23
67052;BME280;53957;47.222;18.670;2023-05-22T09:01:48;100101.94;;;21.69;55.42
67052;BME280;53957;47.222;18.670;2023-05-22T09:04:53;100109.72;;;21.51;58.21
67052;BME280;53957;47.222;18.670;2023-05-22T09:07:56;100109.50;;;22.30;54.62
67052;BME280;53957;47.222;18.670;2023-05-22T09:11:06;100109.09;;;22.04;54.74
67052;BME280;53957;47.222;18.670;2023-05-22T09:14:10;100106.25;;;22.74;52.06
67052;BME280;53957;47.222;18.670;2023-05-22T09:17:14;100112.69;;;23.57;49.72
67052;BME280;53957;47.222;18.670;2023-05-22T09:20:18;100108.25;;;23.79;47.63
67052;BME280;53957;47.222;18.670;2023-05-22T09:23:20;100103.72;;;23.94;49.31
67052;BME280;53957;47.222;18.670;2023-05-22T09:26:26;100107.09;;;24.29;49.38
67052;BME280;53957;47.222;18.670;2023-05-22T09:29:30;100105.56;;;24.32;46.47
67052;BME280;53957;47.222;18.670;2023-05-22T09:32:33;100101.31;;;24.38;44.06
67052;BME280;53957;47.222;18.670;2023-05-22T09:35:37;100096.34;;;24.58;47.39
67052;BME280;53957;47.222;18.670;2023-05-22T09:38:41;100094.16;;;24.85;44.80
67052;BME280;53957;47.222;18.670;2023-05-22T09:41:44;100093.25;;;24.63;45.36
67052;BME280;53957;47.222;18.670;2023-05-22T09:44:48;100087.47;;;24.05;44.71
67052;BME280;53957;47.222;18.670;2023-05-22T09:47:50;100095.88;;;25.19;44.09
67052;BME280;53957;47.222;18.670;2023-05-22T09:50:54;100100.97;;;25.31;45.70
67052;BME280;53957;47.222;18.670;2023-05-22T09:54:02;100107.97;;;25.32;46.33
67052;BME280;53957;47.222;18.670;2023-05-22T09:57:06;100105.25;;;25.29;53.07
67052;BME280;53957;47.222;18.670;2023-05-22T10:00:12;100106.13;;;25.51;46.35
67052;BME280;53957;47.222;18.670;2023-05-22T10:03:23;100104.53;;;25.39;49.68
67052;BME280;53957;47.222;18.670;2023-05-22T10:06:26;100103.78;;;25.64;47.94
67052;BME280;53957;47.222;18.670;2023-05-22T10:09:30;100103.31;;;25.29;44.95
67052;BME280;53957;47.222;18.670;2023-05-22T10:12:56;100104.41;;;25.14;47.09
67052;BME280;53957;47.222;18.670;2023-05-22T10:16:03;100099.78;;;25.32;46.72
67052;BME280;53957;47.222;18.670;2023-05-22T10:19:06;100096.34;;;24.58;45.01
67052;BME280;53957;47.222;18.670;2023-05-22T10:22:10;100086.19;;;24.51;48.57
67052;BME280;53957;47.222;18.670;2023-05-22T10:25:16;100078.97;;;24.14;52.96
67052;BME280;53957;47.222;18.670;2023-05-22T10:28:25;100078.47;;;24.64;53.31
67052;BME280;53957;47.222;18.670;2023-05-22T10:31:39;100074.22;;;24.07;56.33
67052;BME280;53957;47.222;18.670;2023-05-22T10:34:49;100078.81;;;23.96;56.34
67052;BME280;53957;47.222;18.670;2023-05-22T10:41:24;100076.16;;;24.03;46.67
67052;BME280;53957;47.222;18.670;2023-05-22T10:44:27;100071.19;;;24.83;50.90
67052;BME280;53957;47.222;18.670;2023-05-22T10:47:34;100071.25;;;25.04;48.09
67052;BME280;53957;47.222;18.670;2023-05-22T10:50:38;100073.12;;;24.82;52.65
67052;BME280;53957;47.222;18.670;2023-05-22T10:53:42;100074.84;;;25.27;44.88
67052;BME280;53957;47.222;18.670;2023-05-22T10:56:46;100066.66;;;24.42;48.22
67052;BME280;53957;47.222;18.670;2023-05-22T10:59:49;100057.41;;;24.57;48.11
67052;BME280;53957;47.222;18.670;2023-05-22T11:03:02;100056.47;;;24.28;48.13
67052;BME280;53957;47.222;18.670;2023-05-22T11:09:47;100041.50;;;23.97;46.64
67052;BME280;53957;47.222;18.670;2023-05-22T11:13:01;100047.06;;;24.92;43.44
67052;BME280;53957;47.222;18.670;2023-05-22T11:16:05;100038.53;;;25.12;41.69
67052;BME280;53957;47.222;18.670;2023-05-22T11:19:09;100043.22;;;25.15;42.55
67052;BME280;53957;47.222;18.670;2023-05-22T11:22:34;100036.19;;;24.99;41.04
67052;BME280;53957;47.222;18.670;2023-05-22T11:25:39;100035.47;;;25.31;45.35
67052;BME280;53957;47.222;18.670;2023-05-22T11:28:46;100031.16;;;25.23;47.64
67052;BME280;53957;47.222;18.670;2023-05-22T11:31:50;100021.09;;;25.56;44.39
67052;BME280;53957;47.222;18.670;2023-05-22T11:34:55;100020.94;;;24.91;43.51
67052;BME280;53957;47.222;18.670;2023-05-22T11:38:03;100015.91;;;25.00;43.54
67052;BME280;53957;47.222;18.670;2023-05-22T11:41:09;100020.84;;;24.69;43.04
67052;BME280;53957;47.222;18.670;2023-05-22T11:44:15;100009.91;;;24.58;48.62
67052;BME280;53957;47.222;18.670;2023-05-22T11:47:18;100009.50;;;24.56;48.31
67052;BME280;53957;47.222;18.670;2023-05-22T11:50:21;100008.41;;;24.68;44.61
67052;BME280;53957;47.222;18.670;2023-05-22T11:53:43;100006.28;;;24.33;43.02
67052;BME280;53957;47.222;18.670;2023-05-22T11:56:47;100006.16;;;24.99;42.18
67052;BME280;53957;47.222;18.670;2023-05-22T11:59:50;100003.03;;;24.94;41.96
67052;BME280;53957;47.222;18.670;2023-05-22T12:02:53;99994.09;;;25.00;42.96
67052;BME280;53957;47.222;18.670;2023-05-22T12:05:57;99994.13;;;25.26;43.83
67052;BME280;53957;47.222;18.670;2023-05-22T12:09:00;99999.50;;;24.86;50.44
67052;BME280;53957;47.222;18.670;2023-05-22T12:12:10;99994.88;;;25.26;39.58
67052;BME280;53957;47.222;18.670;2023-05-22T12:15:13;99993.78;;;25.45;39.22
67052;BME280;53957;47.222;18.670;2023-05-22T12:18:17;99980.84;;;25.20;44.31
67052;BME280;53957;47.222;18.670;2023-05-22T12:21:20;99982.44;;;25.43;42.56
67052;BME280;53957;47.222;18.670;2023-05-22T12:24:23;99983.63;;;25.78;44.74
67052;BME280;53957;47.222;18.670;2023-05-22T12:27:29;99978.16;;;25.46;49.16
67052;BME280;53957;47.222;18.670;2023-05-22T12:30:40;99971.53;;;25.58;45.73
67052;BME280;53957;47.222;18.670;2023-05-22T12:33:43;99967.62;;;25.59;42.75
67052;BME280;53957;47.222;18.670;2023-05-22T12:36:46;99962.53;;;25.71;44.12
67052;BME280;53957;47.222;18.670;2023-05-22T12:40:00;99965.28;;;25.64;45.82
67052;BME280;53957;47.222;18.670;2023-05-22T12:43:03;99964.91;;;25.69;43.98
67052;BME280;53957;47.222;18.670;2023-05-22T12:46:06;99958.66;;;25.65;44.59
67052;BME280;53957;47.222;18.670;2023-05-22T12:49:09;99952.75;;;25.81;41.47
67052;BME280;53957;47.222;18.670;2023-05-22T12:52:12;99951.66;;;25.43;44.65
67052;BME280;53957;47.222;18.670;2023-05-22T12:55:15;99952.03;;;25.59;44.18
67052;BME280;53957;47.222;18.670;2023-05-22T12:58:18;99947.34;;;25.42;43.30
67052;BME280;53957;47.222;18.670;2023-05-22T13:01:21;99946.91;;;25.03;48.80
67052;BME280;53957;47.222;18.670;2023-05-22T13:04:25;99940.69;;;25.21;48.29
67052;BME280;53957;47.222;18.670;2023-05-22T13:07:28;99947.72;;;25.22;44.75
67052;BME280;53957;47.222;18.670;2023-05-22T13:10:31;99939.94;;;25.64;44.26
67052;BME280;53957;47.222;18.670;2023-05-22T13:13:34;99935.62;;;25.48;41.81
67052;BME280;53957;47.222;18.670;2023-05-22T13:16:37;99932.13;;;25.62;44.43
67052;BME280;53957;47.222;18.670;2023-05-22T13:19:40;99936.03;;;25.65;38.78
67052;BME280;53957;47.222;18.670;2023-05-22T13:22:42;99929.41;;;25.69;41.19
67052;BME280;53957;47.222;18.670;2023-05-22T13:25:46;99926.66;;;25.62;39.12
67052;BME280;53957;47.222;18.670;2023-05-22T13:28:49;99928.66;;;25.44;41.72
67052;BME280;53957;47.222;18.670;2023-05-22T13:31:52;99939.16;;;25.56;41.01
67052;BME280;53957;47.222;18.670;2023-05-22T13:34:55;99925.09;;;25.36;39.70
67052;BME280;53957;47.222;18.670;2023-05-22T13:37:58;99929.81;;;25.57;40.29
67052;BME280;53957;47.222;18.670;2023-05-22T13:41:01;99920.44;;;25.51;45.03
67052;BME280;53957;47.222;18.670;2023-05-22T13:44:04;99911.88;;;25.42;46.59
67052;BME280;53957;47.222;18.670;2023-05-22T13:47:07;99918.84;;;25.71;43.50
67052;BME280;53957;47.222;18.670;2023-05-22T13:50:10;99916.81;;;25.97;44.77
67052;BME280;53957;47.222;18.670;2023-05-22T13:53:13;99909.47;;;25.65;42.88
67052;BME280;53957;47.222;18.670;2023-05-22T13:56:22;99911.88;;;25.49;45.33
67052;BME280;53957;47.222;18.670;2023-05-22T13:59:25;99906.78;;;25.51;42.48
67052;BME280;53957;47.222;18.670;2023-05-22T14:02:28;99905.59;;;25.63;44.13
67052;BME280;53957;47.222;18.670;2023-05-22T14:05:32;99904.06;;;25.44;48.43
67052;BME280;53957;47.222;18.670;2023-05-22T14:08:34;99904.81;;;25.62;46.47
67052;BME280;53957;47.222;18.670;2023-05-22T14:11:39;99901.69;;;24.95;44.62
67052;BME280;53957;47.222;18.670;2023-05-22T14:14:41;99897.41;;;25.19;46.76
67052;BME280;53957;47.222;18.670;2023-05-22T14:17:45;99900.94;;;25.63;44.00
67052;BME280;53957;47.222;18.670;2023-05-22T14:20:48;99899.38;;;25.51;46.83
67052;BME280;53957;47.222;18.670;2023-05-22T14:23:51;99907.16;;;25.38;48.52
67052;BME280;53957;47.222;18.670;2023-05-22T14:26:54;99898.59;;;25.33;50.08
67052;BME280;53957;47.222;18.670;2023-05-22T14:29:59;99896.22;;;25.60;46.74
67052;BME280;53957;47.222;18.670;2023-05-22T14:33:02;99888.03;;;25.60;46.62
67052;BME280;53957;47.222;18.670;2023-05-22T14:36:06;99888.44;;;25.59;43.77
67052;BME280;53957;47.222;18.670;2023-05-22T14:39:09;99884.97;;;25.00;49.08
67052;BME280;53957;47.222;18.670;2023-05-22T14:42:12;99885.72;;;24.86;45.39
67052;BME280;53957;47.222;18.670;2023-05-22T14:45:15;99884.94;;;25.15;46.94
67052;BME280;53957;47.222;18.670;2023-05-22T14:48:18;99874.78;;;25.66;44.69
67052;BME280;53957;47.222;18.670;2023-05-22T14:51:21;99878.31;;;25.52;48.99
67052;BME280;53957;47.222;18.670;2023-05-22T14:54:24;99881.44;;;25.39;50.77
67052;BME280;53957;47.222;18.670;2023-05-22T14:57:29;99881.44;;;25.47;48.08
67052;BME280;53957;47.222;18.670;2023-05-22T15:00:32;99880.66;;;24.99;49.48
67052;BME280;53957;47.222;18.670;2023-05-22T15:03:35;99879.87;;;25.38;46.20
67052;BME280;53957;47.222;18.670;2023-05-22T15:06:38;99877.50;;;25.33;49.86
67052;BME280;53957;47.222;18.670;2023-05-22T15:09:40;99878.31;;;25.52;45.35
67052;BME280;53957;47.222;18.670;2023-05-22T15:12:43;99870.53;;;25.21;45.67
67052;BME280;53957;47.222;18.670;2023-05-22T15:15:46;99867.41;;;25.08;45.48
67052;BME280;53957;47.222;18.670;2023-05-22T15:18:49;99858.81;;;25.50;45.07
67052;BME280;53957;47.222;18.670;2023-05-22T15:21:53;99858.44;;;25.37;47.64
67052;BME280;53957;47.222;18.670;2023-05-22T15:25:06;99859.22;;;25.08;49.69
67052;BME280;53957;47.222;18.670;2023-05-22T15:28:09;99859.22;;;25.23;46.66
67052;BME280;53957;47.222;18.670;2023-05-22T15:31:12;99862.34;;;24.96;47.61
67052;BME280;53957;47.222;18.670;2023-05-22T15:34:15;99858.41;;;25.33;44.34
67052;BME280;53957;47.222;18.670;2023-05-22T15:37:18;99852.56;;;25.38;44.20
67052;BME280;53957;47.222;18.670;2023-05-22T15:40:21;99854.94;;;25.07;48.23
67052;BME280;53957;47.222;18.670;2023-05-22T15:43:25;99855.31;;;24.99;44.39
67052;BME280;53957;47.222;18.670;2023-05-22T15:46:28;99853.38;;;25.10;44.45
67052;BME280;53957;47.222;18.670;2023-05-22T15:49:31;99852.59;;;24.99;44.03
67052;BME280;53957;47.222;18.670;2023-05-22T15:52:34;99850.66;;;24.92;44.29
67052;BME280;53957;47.222;18.670;2023-05-22T15:55:37;99843.25;;;24.96;46.07
67052;BME280;53957;47.222;18.670;2023-05-22T15:58:40;99836.25;;;24.84;45.84
67052;BME280;53957;47.222;18.670;2023-05-22T16:01:43;99841.28;;;25.07;47.59
67052;BME280;53957;47.222;18.670;2023-05-22T16:04:47;99848.69;;;25.00;49.87
67052;BME280;53957;47.222;18.670;2023-05-22T16:07:50;99845.59;;;24.90;48.81
67052;BME280;53957;47.222;18.670;2023-05-22T16:10:53;99840.13;;;24.94;47.68
67052;BME280;53957;47.222;18.670;2023-05-22T16:13:57;99832.69;;;24.62;48.52
67052;BME280;53957;47.222;18.670;2023-05-22T16:17:00;99837.78;;;24.74;47.32
67052;BME280;53957;47.222;18.670;2023-05-22T16:20:03;99842.47;;;24.92;45.28
67052;BME280;53957;47.222;18.670;2023-05-22T16:23:07;99842.88;;;24.90;46.21
67052;BME280;53957;47.222;18.670;2023-05-22T16:26:10;99838.56;;;24.82;45.41
67052;BME280;53957;47.222;18.670;2023-05-22T16:29:13;99844.75;;;24.57;45.97
67052;BME280;53957;47.222;18.670;2023-05-22T16:32:16;99842.78;;;24.51;47.98
67052;BME280;53957;47.222;18.670;2023-05-22T16:35:19;99840.53;;;24.82;45.12
67052;BME280;53957;47.222;18.670;2023-05-22T16:38:23;99834.28;;;24.92;46.50
67052;BME280;53957;47.222;18.670;2023-05-22T16:41:26;99840.13;;;24.87;44.81
67052;BME280;53957;47.222;18.670;2023-05-22T16:44:29;99835.44;;;24.80;46.18
67052;BME280;53957;47.222;18.670;2023-05-22T16:47:32;99840.53;;;24.78;46.84
67052;BME280;53957;47.222;18.670;2023-05-22T16:50:35;99842.41;;;24.56;48.24
67052;BME280;53957;47.222;18.670;2023-05-22T16:53:39;99847.44;;;24.39;48.89
67052;BME280;53957;47.222;18.670;2023-05-22T16:56:43;99841.97;;;24.32;50.12
67052;BME280;53957;47.222;18.670;2023-05-22T16:59:46;99838.41;;;24.14;51.40
67052;BME280;53957;47.222;18.670;2023-05-22T17:02:49;99847.34;;;24.07;52.13
67052;BME280;53957;47.222;18.670;2023-05-22T17:05:52;99844.59;;;24.00;52.47
67052;BME280;53957;47.222;18.670;2023-05-22T17:08:54;99843.34;;;23.90;56.65
67052;BME280;53957;47.222;18.670;2023-05-22T17:11:58;99851.09;;;23.77;60.06
67052;BME280;53957;47.222;18.670;2023-05-22T17:15:00;99842.38;;;23.50;62.66
67052;BME280;53957;47.222;18.670;2023-05-22T17:18:03;99847.75;;;23.39;64.92
67052;BME280;53957;47.222;18.670;2023-05-22T17:21:06;99852.00;;;23.33;67.68
67052;BME280;53957;47.222;18.670;2023-05-22T17:24:11;99855.63;;;23.06;69.26
67052;BME280;53957;47.222;18.670;2023-05-22T17:27:16;99867.12;;;22.85;73.87
67052;BME280;53957;47.222;18.670;2023-05-22T17:30:37;99853.34;;;22.63;77.14
67052;BME280;53957;47.222;18.670;2023-05-22T17:33:40;99850.47;;;22.49;75.56
67052;BME280;53957;47.222;18.670;2023-05-22T17:36:45;99852.88;;;22.58;76.23
67052;BME280;53957;47.222;18.670;2023-05-22T17:39:47;99854.41;;;22.55;75.73
67052;BME280;53957;47.222;18.670;2023-05-22T17:42:51;99845.03;;;22.49;78.23
67052;BME280;53957;47.222;18.670;2023-05-22T17:45:54;99844.56;;;22.43;79.98
67052;BME280;53957;47.222;18.670;2023-05-22T17:48:57;99849.44;;;22.27;81.26
67052;BME280;53957;47.222;18.670;2023-05-22T17:52:00;99842.63;;;22.10;83.71
67052;BME280;53957;47.222;18.670;2023-05-22T17:55:03;99843.63;;;21.94;87.21
67052;BME280;53957;47.222;18.670;2023-05-22T17:58:06;99843.34;;;21.73;92.96
67052;BME280;53957;47.222;18.670;2023-05-22T18:01:09;99852.31;;;21.50;99.34
67052;BME280;53957;47.222;18.670;2023-05-22T18:04:12;99855.75;;;21.20;100.00
67052;BME280;53957;47.222;18.670;2023-05-22T18:07:14;99852.44;;;21.07;100.00
67052;BME280;53957;47.222;18.670;2023-05-22T18:10:22;99859.06;;;20.86;100.00
67052;BME280;53957;47.222;18.670;2023-05-22T18:13:26;99863.44;;;20.71;100.00
67052;BME280;53957;47.222;18.670;2023-05-22T18:16:29;99865.97;;;20.41;100.00
67052;BME280;53957;47.222;18.670;2023-05-22T18:19:35;99878.28;;;20.38;100.00
67052;BME280;53957;47.222;18.670;2023-05-22T18:22:38;99882.62;;;20.23;100.00
67052;BME280;53957;47.222;18.670;2023-05-22T18:25:41;99882.53;;;20.16;100.00
67052;BME280;53957;47.222;18.670;2023-05-22T18:28:45;99887.34;;;20.26;100.00
67052;BME280;53957;47.222;18.670;2023-05-22T18:31:49;99883.50;;;20.27;100.00
67052;BME280;53957;47.222;18.670;2023-05-22T18:34:53;99884.66;;;20.26;100.00
67052;BME280;53957;47.222;18.670;2023-05-22T18:37:56;99881.63;;;19.92;100.00
67052;BME280;53957;47.222;18.670;2023-05-22T18:41:01;99881.81;;;19.68;100.00
67052;BME280;53957;47.222;18.670;2023-05-22T18:44:04;99887.31;;;19.71;100.00
67052;BME280;53957;47.222;18.670;2023-05-22T18:47:07;99878.78;;;20.05;100.00
67052;BME280;53957;47.222;18.670;2023-05-22T18:50:10;99889.19;;;20.03;100.00
67052;BME280;53957;47.222;18.670;2023-05-22T18:53:14;99885.56;;;19.79;100.00
67052;BME280;53957;47.222;18.670;2023-05-22T18:56:16;99877.81;;;19.61;100.00
67052;BME280;53957;47.222;18.670;2023-05-22T18:59:20;99874.25;;;19.57;100.00
67052;BME280;53957;47.222;18.670;2023-05-22T19:02:23;99878.63;;;19.62;100.00
67052;BME280;53957;47.222;18.670;2023-05-22T19:05:26;99881.09;;;20.03;100.00
67052;BME280;53957;47.222;18.670;2023-05-22T19:08:30;99884.47;;;20.00;100.00
67052;BME280;53957;47.222;18.670;2023-05-22T19:11:35;99885.81;;;19.90;100.00
67052;BME280;53957;47.222;18.670;2023-05-22T19:14:41;99893.59;;;19.75;100.00
67052;BME280;53957;47.222;18.670;2023-05-22T19:17:46;99905.53;;;19.23;100.00
67052;BME280;53957;47.222;18.670;2023-05-22T19:20:50;99901.59;;;19.20;100.00
67052;BME280;53957;47.222;18.670;2023-05-22T19:23:53;99904.47;;;19.27;100.00
67052;BME280;53957;47.222;18.670;2023-05-22T19:26:56;99901.31;;;19.09;100.00
67052;BME280;53957;47.222;18.670;2023-05-22T19:29:59;99903.25;;;18.93;100.00
67052;BME280;53957;47.222;18.670;2023-05-22T19:33:02;99914.81;;;18.93;100.00
67052;BME280;53957;47.222;18.670;2023-05-22T19:36:11;99912.75;;;19.35;100.00
67052;BME280;53957;47.222;18.670;2023-05-22T19:39:14;99913.78;;;18.98;100.00
67052;BME280;53957;47.222;18.670;2023-05-22T19:42:18;99919.97;;;18.98;100.00
67052;BME280;53957;47.222;18.670;2023-05-22T19:45:24;99922.16;;;18.64;100.00
67052;BME280;53957;47.222;18.670;2023-05-22T19:48:29;99928.03;;;18.54;100.00
67052;BME280;53957;47.222;18.670;2023-05-22T19:51:37;99927.34;;;18.29;100.00
67052;BME280;53957;47.222;18.670;2023-05-22T19:54:41;99923.84;;;18.16;100.00
67052;BME280;53957;47.222;18.670;2023-05-22T19:57:44;99924.03;;;18.35;100.00
67052;BME280;53957;47.222;18.670;2023-05-22T20:00:47;99921.69;;;18.34;100.00
67052;BME280;53957;47.222;18.670;2023-05-22T20:03:53;99921.75;;;18.50;100.00
67052;BME280;53957;47.222;18.670;2023-05-22T20:07:05;99919.00;;;18.91;100.00
67052;BME280;53957;47.222;18.670;2023-05-22T20:10:10;99922.25;;;18.68;100.00
67052;BME280;53957;47.222;18.670;2023-05-22T20:13:13;99910.41;;;18.44;100.00
67052;BME280;53957;47.222;18.670;2023-05-22T20:16:16;99909.87;;;18.39;100.00
67052;BME280;53957;47.222;18.670;2023-05-22T20:19:19;99910.31;;;18.28;100.00
67052;BME280;53957;47.222;18.670;2023-05-22T20:22:24;99900.91;;;18.22;100.00
67052;BME280;53957;47.222;18.670;2023-05-22T20:25:27;99903.63;;;18.10;100.00
67052;BME280;53957;47.222;18.670;2023-05-22T20:28:30;99901.87;;;18.01;100.00